sensor_id;sensor_type;location;lat;lon;timestamp;pressure;altitude;pressure_sealevel;temperature;humidity
59419;BME280;45224;50.904;6.038;2023-06-19T00:01:22;99168.53;;;22.59;55.89
59419;BME280;45224;50.904;6.038;2023-06-19T00:02:53;99168.34;;;22.63;55.79
59419;BME280;45224;50.904;6.038;2023-06-19T00:04:23;99173.09;;;22.56;55.69
59419;BME280;45224;50.904;6.038;2023-06-19T00:05:54;99171.25;;;22.58;55.98
59419;BME280;45224;50.904;6.038;2023-06-19T00:07:24;99174.81;;;22.57;55.44
59419;BME280;45224;50.904;6.038;2023-06-19T00:08:55;99170.69;;;22.53;55.90
59419;BME280;45224;50.904;6.038;2023-06-19T00:10:25;99167.25;;;22.51;55.78
59419;BME280;45224;50.904;6.038;2023-06-19T00:11:56;99170.94;;;22.48;55.83
59419;BME280;45224;50.904;6.038;2023-06-19T00:13:28;99171.59;;;22.52;56.22
59419;BME280;45224;50.904;6.038;2023-06-19T00:14:58;99165.59;;;22.50;56.12
59419;BME280;45224;50.904;6.038;2023-06-19T00:16:29;99169.16;;;22.49;55.96
59419;BME280;45224;50.904;6.038;2023-06-19T00:17:59;99166.88;;;22.42;56.13
59419;BME280;45224;50.904;6.038;2023-06-19T00:19:30;99167.34;;;22.49;55.86
59419;BME280;45224;50.904;6.038;2023-06-19T00:21:00;99166.50;;;22.49;55.73
59419;BME280;45224;50.904;6.038;2023-06-19T00:22:31;99170.47;;;22.41;56.45
59419;BME280;45224;50.904;6.038;2023-06-19T00:24:02;99172.31;;;22.39;56.41
59419;BME280;45224;50.904;6.038;2023-06-19T00:25:32;99173.34;;;22.37;56.24
59419;BME280;45224;50.904;6.038;2023-06-19T00:27:03;99168.19;;;22.35;56.10
59419;BME280;45224;50.904;6.038;2023-06-19T00:28:34;99178.53;;;22.38;56.25
59419;BME280;45224;50.904;6.038;2023-06-19T00:30:05;99167.59;;;22.30;56.35
59419;BME280;45224;50.904;6.038;2023-06-19T00:31:36;99177.94;;;22.33;56.25
59419;BME280;45224;50.904;6.038;2023-06-19T00:33:07;99182.69;;;22.27;57.00
59419;BME280;45224;50.904;6.038;2023-06-19T00:34:38;99177.50;;;22.25;56.29
59419;BME280;45224;50.904;6.038;2023-06-19T00:36:09;99181.84;;;22.26;56.51
59419;BME280;45224;50.904;6.038;2023-06-19T00:37:42;99185.41;;;22.25;56.60
59419;BME280;45224;50.904;6.038;2023-06-19T00:39:15;99174.47;;;22.17;56.85
59419;BME280;45224;50.904;6.038;2023-06-19T00:40:45;99186.34;;;22.24;56.44
59419;BME280;45224;50.904;6.038;2023-06-19T00:42:16;99187.47;;;22.20;57.16
59419;BME280;45224;50.904;6.038;2023-06-19T00:43:48;99173.47;;;22.19;56.46
59419;BME280;45224;50.904;6.038;2023-06-19T00:45:19;99189.00;;;22.24;56.53
59419;BME280;45224;50.904;6.038;2023-06-19T00:46:57;99182.38;;;22.17;56.46
59419;BME280;45224;50.904;6.038;2023-06-19T00:48:28;99190.19;;;22.18;56.94
59419;BME280;45224;50.904;6.038;2023-06-19T00:49:59;99184.06;;;22.18;57.03
59419;BME280;45224;50.904;6.038;2023-06-19T00:51:30;99187.91;;;22.12;57.21
59419;BME280;45224;50.904;6.038;2023-06-19T00:53:02;99194.13;;;22.11;57.42
59419;BME280;45224;50.904;6.038;2023-06-19T00:54:33;99194.19;;;22.10;57.45
59419;BME280;45224;50.904;6.038;2023-06-19T00:56:05;99191.38;;;22.13;56.69
59419;BME280;45224;50.904;6.038;2023-06-19T00:57:36;99185.44;;;22.09;56.89
59419;BME280;45224;50.904;6.038;2023-06-19T00:59:20;99184.75;;;22.05;56.95
59419;BME280;45224;50.904;6.038;2023-06-19T01:00:50;99186.38;;;22.08;56.67
59419;BME280;45224;50.904;6.038;2023-06-19T01:02:22;99189.69;;;22.12;56.34
59419;BME280;45224;50.904;6.038;2023-06-19T01:03:53;99188.94;;;22.10;56.54
59419;BME280;45224;50.904;6.038;2023-06-19T01:05:24;99189.03;;;22.08;56.29
59419;BME280;45224;50.904;6.038;2023-06-19T01:07:09;99193.25;;;22.11;56.26
59419;BME280;45224;50.904;6.038;2023-06-19T01:09:10;99189.94;;;22.07;56.79
59419;BME280;45224;50.904;6.038;2023-06-19T01:10:49;99202.25;;;22.06;56.58
59419;BME280;45224;50.904;6.038;2023-06-19T01:12:36;99202.25;;;22.06;56.91
59419;BME280;45224;50.904;6.038;2023-06-19T01:14:44;99195.56;;;22.01;57.49
59419;BME280;45224;50.904;6.038;2023-06-19T01:16:18;99202.78;;;21.97;56.97
59419;BME280;45224;50.904;6.038;2023-06-19T01:17:49;99206.94;;;22.01;56.76
59419;BME280;45224;50.904;6.038;2023-06-19T01:19:20;99207.88;;;22.00;56.80
59419;BME280;45224;50.904;6.038;2023-06-19T01:20:51;99208.03;;;21.97;56.81
59419;BME280;45224;50.904;6.038;2023-06-19T01:22:28;99208.38;;;21.91;57.08
59419;BME280;45224;50.904;6.038;2023-06-19T01:24:02;99208.06;;;21.81;57.29
59419;BME280;45224;50.904;6.038;2023-06-19T01:25:33;99214.25;;;21.80;57.28
59419;BME280;45224;50.904;6.038;2023-06-19T01:27:04;99208.91;;;21.82;57.46
59419;BME280;45224;50.904;6.038;2023-06-19T01:28:35;99211.97;;;21.74;57.51
59419;BME280;45224;50.904;6.038;2023-06-19T01:30:10;99211.63;;;21.80;57.67
59419;BME280;45224;50.904;6.038;2023-06-19T01:31:46;99207.88;;;21.84;57.37
59419;BME280;45224;50.904;6.038;2023-06-19T01:33:25;99214.09;;;21.83;57.44
59419;BME280;45224;50.904;6.038;2023-06-19T01:34:57;99213.56;;;21.77;57.57
59419;BME280;45224;50.904;6.038;2023-06-19T01:36:29;99213.16;;;21.84;57.28
59419;BME280;45224;50.904;6.038;2023-06-19T01:38:04;99217.91;;;21.78;57.68
59419;BME280;45224;50.904;6.038;2023-06-19T01:39:37;99210.75;;;21.80;57.58
59419;BME280;45224;50.904;6.038;2023-06-19T01:41:08;99219.78;;;21.76;58.16
59419;BME280;45224;50.904;6.038;2023-06-19T01:42:40;99221.81;;;21.70;58.45
59419;BME280;45224;50.904;6.038;2023-06-19T01:44:12;99220.63;;;21.76;58.36
59419;BME280;45224;50.904;6.038;2023-06-19T01:45:42;99217.31;;;21.73;58.10
59419;BME280;45224;50.904;6.038;2023-06-19T01:47:13;99231.31;;;21.73;58.32
59419;BME280;45224;50.904;6.038;2023-06-19T01:48:46;99234.09;;;21.70;58.79
59419;BME280;45224;50.904;6.038;2023-06-19T01:50:17;99226.53;;;21.64;58.98
59419;BME280;45224;50.904;6.038;2023-06-19T01:51:48;99233.34;;;21.68;58.82
59419;BME280;45224;50.904;6.038;2023-06-19T01:53:20;99242.06;;;21.68;58.78
59419;BME280;45224;50.904;6.038;2023-06-19T01:54:51;99237.78;;;21.67;59.08
59419;BME280;45224;50.904;6.038;2023-06-19T01:56:22;99237.34;;;21.59;59.35
59419;BME280;45224;50.904;6.038;2023-06-19T01:57:55;99242.16;;;21.67;58.75
59419;BME280;45224;50.904;6.038;2023-06-19T01:59:26;99237.50;;;21.56;59.44
59419;BME280;45224;50.904;6.038;2023-06-19T02:00:56;99255.66;;;21.61;59.79
59419;BME280;45224;50.904;6.038;2023-06-19T02:02:27;99257.59;;;21.57;60.15
59419;BME280;45224;50.904;6.038;2023-06-19T02:03:57;99259.06;;;21.45;60.88
59419;BME280;45224;50.904;6.038;2023-06-19T02:05:28;99253.13;;;21.42;61.20
59419;BME280;45224;50.904;6.038;2023-06-19T02:06:59;99258.56;;;21.39;61.35
59419;BME280;45224;50.904;6.038;2023-06-19T02:08:29;99262.09;;;21.38;61.63
59419;BME280;45224;50.904;6.038;2023-06-19T02:10:00;99268.91;;;21.42;61.42
59419;BME280;45224;50.904;6.038;2023-06-19T02:11:30;99268.50;;;21.16;63.43
59419;BME280;45224;50.904;6.038;2023-06-19T02:13:01;99260.47;;;21.19;62.99
59419;BME280;45224;50.904;6.038;2023-06-19T02:14:31;99259.69;;;21.17;63.65
59419;BME280;45224;50.904;6.038;2023-06-19T02:16:02;99269.09;;;21.21;63.75
59419;BME280;45224;50.904;6.038;2023-06-19T02:17:32;99272.72;;;21.19;63.64
59419;BME280;45224;50.904;6.038;2023-06-19T02:19:03;99267.31;;;21.22;63.46
59419;BME280;45224;50.904;6.038;2023-06-19T02:20:34;99264.97;;;21.00;65.25
59419;BME280;45224;50.904;6.038;2023-06-19T02:22:05;99270.59;;;21.09;64.78
59419;BME280;45224;50.904;6.038;2023-06-19T02:23:36;99262.63;;;21.11;64.89
59419;BME280;45224;50.904;6.038;2023-06-19T02:25:07;99272.22;;;21.12;64.98
59419;BME280;45224;50.904;6.038;2023-06-19T02:26:37;99267.59;;;21.00;66.10
59419;BME280;45224;50.904;6.038;2023-06-19T02:28:08;99274.38;;;21.04;66.13
59419;BME280;45224;50.904;6.038;2023-06-19T02:29:39;99265.75;;;21.02;66.27
59419;BME280;45224;50.904;6.038;2023-06-19T02:31:09;99263.56;;;20.92;67.14
59419;BME280;45224;50.904;6.038;2023-06-19T02:32:42;99278.88;;;20.84;68.05
59419;BME280;45224;50.904;6.038;2023-06-19T02:34:12;99286.53;;;20.89;67.71
59419;BME280;45224;50.904;6.038;2023-06-19T02:35:43;99273.63;;;20.84;67.74
59419;BME280;45224;50.904;6.038;2023-06-19T02:37:14;99285.16;;;20.82;68.19
59419;BME280;45224;50.904;6.038;2023-06-19T02:38:48;99282.28;;;20.86;67.79
59419;BME280;45224;50.904;6.038;2023-06-19T02:40:19;99286.00;;;20.82;68.46
59419;BME280;45224;50.904;6.038;2023-06-19T02:41:49;99292.69;;;20.88;68.31
59419;BME280;45224;50.904;6.038;2023-06-19T02:43:20;99282.84;;;20.75;69.04
59419;BME280;45224;50.904;6.038;2023-06-19T02:44:50;99285.91;;;20.84;67.80
59419;BME280;45224;50.904;6.038;2023-06-19T02:46:21;99277.50;;;20.77;68.41
59419;BME280;45224;50.904;6.038;2023-06-19T02:47:51;99290.94;;;20.71;69.90
59419;BME280;45224;50.904;6.038;2023-06-19T02:49:23;99297.09;;;20.70;69.53
59419;BME280;45224;50.904;6.038;2023-06-19T02:50:54;99290.88;;;20.72;69.35
59419;BME280;45224;50.904;6.038;2023-06-19T02:52:24;99301.28;;;20.74;68.91
59419;BME280;45224;50.904;6.038;2023-06-19T02:53:55;99300.50;;;20.72;69.14
59419;BME280;45224;50.904;6.038;2023-06-19T02:55:26;99308.22;;;20.75;69.09
59419;BME280;45224;50.904;6.038;2023-06-19T02:56:56;99309.72;;;20.61;70.67
59419;BME280;45224;50.904;6.038;2023-06-19T02:58:27;99314.16;;;20.61;70.89
59419;BME280;45224;50.904;6.038;2023-06-19T02:59:59;99313.59;;;20.54;71.09
59419;BME280;45224;50.904;6.038;2023-06-19T03:01:30;99305.50;;;20.59;70.67
59419;BME280;45224;50.904;6.038;2023-06-19T03:03:01;99319.91;;;20.50;71.47
59419;BME280;45224;50.904;6.038;2023-06-19T03:04:32;99312.31;;;20.44;71.90
59419;BME280;45224;50.904;6.038;2023-06-19T03:06:04;99307.53;;;20.35;72.27
59419;BME280;45224;50.904;6.038;2023-06-19T03:07:37;99321.16;;;20.43;72.34
59419;BME280;45224;50.904;6.038;2023-06-19T03:09:07;99312.47;;;20.41;72.30
59419;BME280;45224;50.904;6.038;2023-06-19T03:10:44;99310.66;;;20.43;71.43
59419;BME280;45224;50.904;6.038;2023-06-19T03:12:15;99309.84;;;20.41;72.06
59419;BME280;45224;50.904;6.038;2023-06-19T03:13:49;99309.06;;;20.39;72.40
59419;BME280;45224;50.904;6.038;2023-06-19T03:15:20;99313.91;;;20.48;71.75
59419;BME280;45224;50.904;6.038;2023-06-19T03:16:53;99314.94;;;20.44;72.00
59419;BME280;45224;50.904;6.038;2023-06-19T03:18:24;99315.91;;;20.43;72.33
59419;BME280;45224;50.904;6.038;2023-06-19T03:19:54;99316.66;;;20.45;72.19
59419;BME280;45224;50.904;6.038;2023-06-19T03:21:26;99327.25;;;20.43;72.26
59419;BME280;45224;50.904;6.038;2023-06-19T03:22:56;99332.22;;;20.31;73.80
59419;BME280;45224;50.904;6.038;2023-06-19T03:24:29;99330.97;;;20.20;74.28
59419;BME280;45224;50.904;6.038;2023-06-19T03:26:12;99327.88;;;20.30;73.54
59419;BME280;45224;50.904;6.038;2023-06-19T03:27:44;99332.50;;;20.24;74.54
59419;BME280;45224;50.904;6.038;2023-06-19T03:29:15;99333.53;;;20.22;74.46
59419;BME280;45224;50.904;6.038;2023-06-19T03:30:57;99345.00;;;20.19;75.05
59419;BME280;45224;50.904;6.038;2023-06-19T03:32:29;99354.13;;;20.30;73.95
59419;BME280;45224;50.904;6.038;2023-06-19T03:34:00;99350.59;;;20.31;73.84
59419;BME280;45224;50.904;6.038;2023-06-19T03:35:30;99334.09;;;20.29;74.03
59419;BME280;45224;50.904;6.038;2023-06-19T03:37:02;99359.72;;;20.41;73.40
59419;BME280;45224;50.904;6.038;2023-06-19T03:38:33;99353.00;;;20.16;75.49
59419;BME280;45224;50.904;6.038;2023-06-19T03:40:04;99362.00;;;20.30;74.65
59419;BME280;45224;50.904;6.038;2023-06-19T03:41:39;99362.81;;;20.32;74.14
59419;BME280;45224;50.904;6.038;2023-06-19T03:43:10;99363.88;;;20.28;74.85
59419;BME280;45224;50.904;6.038;2023-06-19T03:44:41;99372.50;;;20.30;74.75
59419;BME280;45224;50.904;6.038;2023-06-19T03:46:12;99379.06;;;20.21;74.89
59419;BME280;45224;50.904;6.038;2023-06-19T03:47:42;99372.97;;;20.20;75.58
59419;BME280;45224;50.904;6.038;2023-06-19T03:49:13;99371.38;;;20.16;75.54
59419;BME280;45224;50.904;6.038;2023-06-19T03:50:43;99378.63;;;20.11;76.38
59419;BME280;45224;50.904;6.038;2023-06-19T03:52:14;99382.03;;;20.13;75.96
59419;BME280;45224;50.904;6.038;2023-06-19T03:53:44;99378.63;;;20.11;76.11
59419;BME280;45224;50.904;6.038;2023-06-19T03:55:15;99387.13;;;20.16;75.99
59419;BME280;45224;50.904;6.038;2023-06-19T03:56:46;99389.13;;;20.11;76.37
59419;BME280;45224;50.904;6.038;2023-06-19T03:58:16;99386.22;;;20.17;75.67
59419;BME280;45224;50.904;6.038;2023-06-19T03:59:47;99387.34;;;20.12;76.17
59419;BME280;45224;50.904;6.038;2023-06-19T04:01:17;99387.69;;;20.04;76.77
59419;BME280;45224;50.904;6.038;2023-06-19T04:02:48;99387.41;;;20.10;76.67
59419;BME280;45224;50.904;6.038;2023-06-19T04:04:19;99383.88;;;20.11;76.56
59419;BME280;45224;50.904;6.038;2023-06-19T04:05:49;99389.56;;;20.21;75.88
59419;BME280;45224;50.904;6.038;2023-06-19T04:07:20;99381.25;;;20.11;77.20
59419;BME280;45224;50.904;6.038;2023-06-19T04:08:51;99380.34;;;20.12;76.88
59419;BME280;45224;50.904;6.038;2023-06-19T04:10:22;99390.84;;;20.12;77.48
59419;BME280;45224;50.904;6.038;2023-06-19T04:11:52;99389.25;;;20.08;77.71
59419;BME280;45224;50.904;6.038;2023-06-19T04:13:23;99387.53;;;20.07;77.46
59419;BME280;45224;50.904;6.038;2023-06-19T04:14:56;99385.72;;;20.09;76.90
59419;BME280;45224;50.904;6.038;2023-06-19T04:16:26;99387.25;;;19.94;78.87
59419;BME280;45224;50.904;6.038;2023-06-19T04:17:57;99385.38;;;19.98;77.99
59419;BME280;45224;50.904;6.038;2023-06-19T04:19:27;99386.78;;;20.05;77.22
59419;BME280;45224;50.904;6.038;2023-06-19T04:20:58;99388.22;;;20.12;77.25
59419;BME280;45224;50.904;6.038;2023-06-19T04:22:28;99391.69;;;20.13;77.36
59419;BME280;45224;50.904;6.038;2023-06-19T04:23:59;99397.78;;;20.13;77.28
59419;BME280;45224;50.904;6.038;2023-06-19T04:25:29;99393.47;;;20.12;77.59
59419;BME280;45224;50.904;6.038;2023-06-19T04:27:00;99396.34;;;20.06;77.86
59419;BME280;45224;50.904;6.038;2023-06-19T04:28:31;99385.53;;;20.14;77.05
59419;BME280;45224;50.904;6.038;2023-06-19T04:30:05;99394.00;;;20.00;78.62
59419;BME280;45224;50.904;6.038;2023-06-19T04:31:36;99395.50;;;20.05;78.05
59419;BME280;45224;50.904;6.038;2023-06-19T04:33:11;99401.75;;;20.03;78.27
59419;BME280;45224;50.904;6.038;2023-06-19T04:34:41;99393.38;;;19.95;78.74
59419;BME280;45224;50.904;6.038;2023-06-19T04:36:16;99396.50;;;20.03;78.19
59419;BME280;45224;50.904;6.038;2023-06-19T04:37:46;99406.06;;;20.04;77.96
59419;BME280;45224;50.904;6.038;2023-06-19T04:39:19;99400.03;;;20.02;77.95
59419;BME280;45224;50.904;6.038;2023-06-19T04:40:50;99408.91;;;19.99;78.25
59419;BME280;45224;50.904;6.038;2023-06-19T04:42:21;99411.03;;;20.10;77.75
59419;BME280;45224;50.904;6.038;2023-06-19T04:43:52;99409.13;;;20.14;77.08
59419;BME280;45224;50.904;6.038;2023-06-19T04:45:22;99406.16;;;20.02;77.98
59419;BME280;45224;50.904;6.038;2023-06-19T04:46:52;99412.50;;;19.97;78.28
59419;BME280;45224;50.904;6.038;2023-06-19T04:48:31;99408.25;;;20.13;77.19
59419;BME280;45224;50.904;6.038;2023-06-19T04:50:01;99413.31;;;20.18;77.09
59419;BME280;45224;50.904;6.038;2023-06-19T04:51:32;99412.66;;;20.13;77.01
59419;BME280;45224;50.904;6.038;2023-06-19T04:53:03;99413.38;;;20.16;77.01
59419;BME280;45224;50.904;6.038;2023-06-19T04:54:33;99418.22;;;20.25;76.48
59419;BME280;45224;50.904;6.038;2023-06-19T04:56:04;99413.75;;;20.28;76.25
59419;BME280;45224;50.904;6.038;2023-06-19T04:57:38;99406.00;;;20.24;76.58
59419;BME280;45224;50.904;6.038;2023-06-19T04:59:08;99407.44;;;20.32;76.10
59419;BME280;45224;50.904;6.038;2023-06-19T05:00:39;99410.91;;;20.32;76.25
59419;BME280;45224;50.904;6.038;2023-06-19T05:02:10;99403.16;;;20.29;76.40
59419;BME280;45224;50.904;6.038;2023-06-19T05:03:42;99414.81;;;20.23;76.52
59419;BME280;45224;50.904;6.038;2023-06-19T05:05:13;99412.75;;;20.30;76.17
59419;BME280;45224;50.904;6.038;2023-06-19T05:06:44;99414.31;;;20.34;75.81
59419;BME280;45224;50.904;6.038;2023-06-19T05:08:14;99415.81;;;20.40;75.78
59419;BME280;45224;50.904;6.038;2023-06-19T05:09:45;99415.81;;;20.40;75.61
59419;BME280;45224;50.904;6.038;2023-06-19T05:11:15;99413.53;;;20.32;76.27
59419;BME280;45224;50.904;6.038;2023-06-19T05:12:46;99413.31;;;20.37;76.14
59419;BME280;45224;50.904;6.038;2023-06-19T05:14:16;99425.44;;;20.39;75.59
59419;BME280;45224;50.904;6.038;2023-06-19T05:15:47;99419.69;;;20.31;76.32
59419;BME280;45224;50.904;6.038;2023-06-19T05:17:18;99428.31;;;20.35;76.73
59419;BME280;45224;50.904;6.038;2023-06-19T05:18:49;99432.47;;;20.39;76.17
59419;BME280;45224;50.904;6.038;2023-06-19T05:20:19;99426.16;;;20.43;75.91
59419;BME280;45224;50.904;6.038;2023-06-19T05:21:50;99433.91;;;20.46;75.98
59419;BME280;45224;50.904;6.038;2023-06-19T05:23:21;99434.53;;;20.51;75.61
59419;BME280;45224;50.904;6.038;2023-06-19T05:24:51;99421.91;;;20.59;75.09
59419;BME280;45224;50.904;6.038;2023-06-19T05:26:22;99430.69;;;20.58;75.45
59419;BME280;45224;50.904;6.038;2023-06-19T05:27:53;99434.19;;;20.59;75.38
59419;BME280;45224;50.904;6.038;2023-06-19T05:29:23;99437.50;;;20.63;75.21
59419;BME280;45224;50.904;6.038;2023-06-19T05:30:54;99438.78;;;20.54;75.51
59419;BME280;45224;50.904;6.038;2023-06-19T05:32:24;99443.03;;;20.56;75.76
59419;BME280;45224;50.904;6.038;2023-06-19T05:33:54;99445.75;;;20.55;75.33
59419;BME280;45224;50.904;6.038;2023-06-19T05:35:25;99437.31;;;20.48;75.87
59419;BME280;45224;50.904;6.038;2023-06-19T05:36:57;99438.63;;;20.57;75.40
59419;BME280;45224;50.904;6.038;2023-06-19T05:38:28;99442.56;;;20.48;75.88
59419;BME280;45224;50.904;6.038;2023-06-19T05:40:00;99446.09;;;20.47;75.89
59419;BME280;45224;50.904;6.038;2023-06-19T05:41:31;99434.03;;;20.43;75.66
59419;BME280;45224;50.904;6.038;2023-06-19T05:43:01;99452.44;;;20.43;76.36
59419;BME280;45224;50.904;6.038;2023-06-19T05:44:32;99449.00;;;20.41;76.24
59419;BME280;45224;50.904;6.038;2023-06-19T05:46:02;99448.84;;;20.44;76.31
59419;BME280;45224;50.904;6.038;2023-06-19T05:47:33;99445.31;;;20.45;76.12
59419;BME280;45224;50.904;6.038;2023-06-19T05:49:03;99445.19;;;20.48;76.07
59419;BME280;45224;50.904;6.038;2023-06-19T05:50:34;99449.41;;;20.51;76.12
59419;BME280;45224;50.904;6.038;2023-06-19T05:52:05;99454.09;;;20.44;76.85
59419;BME280;45224;50.904;6.038;2023-06-19T05:53:35;99445.03;;;20.51;76.33
59419;BME280;45224;50.904;6.038;2023-06-19T05:55:06;99447.59;;;20.53;76.36
59419;BME280;45224;50.904;6.038;2023-06-19T05:56:37;99447.53;;;20.54;76.47
59419;BME280;45224;50.904;6.038;2023-06-19T05:58:08;99437.38;;;20.47;76.81
59419;BME280;45224;50.904;6.038;2023-06-19T05:59:38;99450.06;;;20.37;77.60
59419;BME280;45224;50.904;6.038;2023-06-19T06:01:09;99443.66;;;20.42;76.72
59419;BME280;45224;50.904;6.038;2023-06-19T06:02:40;99443.41;;;20.49;76.35
59419;BME280;45224;50.904;6.038;2023-06-19T06:04:11;99457.25;;;20.33;78.12
59419;BME280;45224;50.904;6.038;2023-06-19T06:05:41;99454.97;;;20.45;77.20
59419;BME280;45224;50.904;6.038;2023-06-19T06:07:12;99461.22;;;20.42;77.84
59419;BME280;45224;50.904;6.038;2023-06-19T06:08:43;99461.63;;;20.33;79.00
59419;BME280;45224;50.904;6.038;2023-06-19T06:10:14;99476.31;;;20.37;79.18
59419;BME280;45224;50.904;6.038;2023-06-19T06:11:45;99470.94;;;20.40;78.21
59419;BME280;45224;50.904;6.038;2023-06-19T06:13:16;99475.56;;;20.35;79.30
59419;BME280;45224;50.904;6.038;2023-06-19T06:14:46;99467.94;;;20.29;79.39
59419;BME280;45224;50.904;6.038;2023-06-19T06:16:17;99475.38;;;20.38;78.93
59419;BME280;45224;50.904;6.038;2023-06-19T06:17:47;99470.22;;;20.36;78.43
59419;BME280;45224;50.904;6.038;2023-06-19T06:19:19;99478.09;;;20.36;78.22
59419;BME280;45224;50.904;6.038;2023-06-19T06:20:51;99480.28;;;20.46;77.75
59419;BME280;45224;50.904;6.038;2023-06-19T06:22:21;99481.88;;;20.50;77.28
59419;BME280;45224;50.904;6.038;2023-06-19T06:23:52;99486.19;;;20.51;77.08
59419;BME280;45224;50.904;6.038;2023-06-19T06:25:24;99484.91;;;20.59;76.62
59419;BME280;45224;50.904;6.038;2023-06-19T06:26:54;99485.06;;;20.56;76.81
59419;BME280;45224;50.904;6.038;2023-06-19T06:28:25;99488.38;;;20.60;76.48
59419;BME280;45224;50.904;6.038;2023-06-19T06:29:57;99498.72;;;20.65;76.36
59419;BME280;45224;50.904;6.038;2023-06-19T06:31:27;99488.84;;;20.70;76.13
59419;BME280;45224;50.904;6.038;2023-06-19T06:32:58;99493.97;;;20.73;76.21
59419;BME280;45224;50.904;6.038;2023-06-19T06:34:28;99496.88;;;20.67;76.77
59419;BME280;45224;50.904;6.038;2023-06-19T06:35:59;99503.69;;;20.71;76.23
59419;BME280;45224;50.904;6.038;2023-06-19T06:37:29;99504.53;;;20.71;76.58
59419;BME280;45224;50.904;6.038;2023-06-19T06:39:00;99511.78;;;20.66;77.02
59419;BME280;45224;50.904;6.038;2023-06-19T06:40:30;99508.88;;;20.72;76.35
59419;BME280;45224;50.904;6.038;2023-06-19T06:42:01;99512.63;;;20.67;76.47
59419;BME280;45224;50.904;6.038;2023-06-19T06:43:32;99505.69;;;20.66;76.70
59419;BME280;45224;50.904;6.038;2023-06-19T06:45:05;99497.75;;;20.67;76.13
59419;BME280;45224;50.904;6.038;2023-06-19T06:46:35;99509.09;;;20.68;76.70
59419;BME280;45224;50.904;6.038;2023-06-19T06:48:06;99508.47;;;20.82;76.05
59419;BME280;45224;50.904;6.038;2023-06-19T06:49:37;99507.31;;;20.87;76.05
59419;BME280;45224;50.904;6.038;2023-06-19T06:51:07;99512.91;;;20.98;75.29
59419;BME280;45224;50.904;6.038;2023-06-19T06:52:40;99512.53;;;21.06;75.23
59419;BME280;45224;50.904;6.038;2023-06-19T06:54:11;99503.66;;;21.09;75.27
59419;BME280;45224;50.904;6.038;2023-06-19T06:55:41;99509.63;;;21.12;74.90
59419;BME280;45224;50.904;6.038;2023-06-19T06:57:12;99504.78;;;21.22;74.83
59419;BME280;45224;50.904;6.038;2023-06-19T06:58:42;99506.16;;;21.29;74.39
59419;BME280;45224;50.904;6.038;2023-06-19T07:00:14;99512.28;;;21.30;74.01
59419;BME280;45224;50.904;6.038;2023-06-19T07:01:44;99503.03;;;21.40;73.74
59419;BME280;45224;50.904;6.038;2023-06-19T07:03:15;99509.31;;;21.55;73.47
59419;BME280;45224;50.904;6.038;2023-06-19T07:04:45;99506.53;;;21.58;73.50
59419;BME280;45224;50.904;6.038;2023-06-19T07:06:16;99516.53;;;21.69;72.73
59419;BME280;45224;50.904;6.038;2023-06-19T07:07:46;99512.72;;;21.75;72.10
59419;BME280;45224;50.904;6.038;2023-06-19T07:09:17;99513.03;;;21.86;71.62
59419;BME280;45224;50.904;6.038;2023-06-19T07:10:48;99520.00;;;21.69;71.94
59419;BME280;45224;50.904;6.038;2023-06-19T07:12:19;99517.69;;;21.81;71.60
59419;BME280;45224;50.904;6.038;2023-06-19T07:13:49;99531.44;;;21.68;71.14
59419;BME280;45224;50.904;6.038;2023-06-19T07:15:20;99516.47;;;21.70;70.53
59419;BME280;45224;50.904;6.038;2023-06-19T07:16:50;99524.50;;;21.67;71.30
59419;BME280;45224;50.904;6.038;2023-06-19T07:18:21;99527.28;;;21.64;71.24
59419;BME280;45224;50.904;6.038;2023-06-19T07:19:51;99520.41;;;21.79;70.45
59419;BME280;45224;50.904;6.038;2023-06-19T07:21:22;99522.94;;;21.81;70.63
59419;BME280;45224;50.904;6.038;2023-06-19T07:22:53;99528.06;;;21.84;70.71
59419;BME280;45224;50.904;6.038;2023-06-19T07:24:23;99530.22;;;21.93;69.54
59419;BME280;45224;50.904;6.038;2023-06-19T07:25:54;99538.59;;;22.01;69.70
59419;BME280;45224;50.904;6.038;2023-06-19T07:27:24;99533.94;;;22.06;69.59
59419;BME280;45224;50.904;6.038;2023-06-19T07:28:57;99531.91;;;22.12;69.69
59419;BME280;45224;50.904;6.038;2023-06-19T07:30:28;99539.03;;;22.10;69.76
59419;BME280;45224;50.904;6.038;2023-06-19T07:31:59;99543.03;;;22.17;69.35
59419;BME280;45224;50.904;6.038;2023-06-19T07:33:31;99540.41;;;22.17;69.02
59419;BME280;45224;50.904;6.038;2023-06-19T07:35:02;99541.91;;;22.05;69.93
59419;BME280;45224;50.904;6.038;2023-06-19T07:36:32;99544.84;;;22.16;69.54
59419;BME280;45224;50.904;6.038;2023-06-19T07:38:02;99549.19;;;22.17;69.61
59419;BME280;45224;50.904;6.038;2023-06-19T07:39:33;99545.75;;;22.33;69.50
59419;BME280;45224;50.904;6.038;2023-06-19T07:41:03;99547.00;;;22.43;69.36
59419;BME280;45224;50.904;6.038;2023-06-19T07:42:34;99532.94;;;22.42;68.48
59419;BME280;45224;50.904;6.038;2023-06-19T07:44:05;99547.88;;;22.59;67.79
59419;BME280;45224;50.904;6.038;2023-06-19T07:45:35;99549.91;;;22.70;67.02
59419;BME280;45224;50.904;6.038;2023-06-19T07:47:07;99552.13;;;22.78;66.58
59419;BME280;45224;50.904;6.038;2023-06-19T07:48:37;99547.09;;;22.73;67.07
59419;BME280;45224;50.904;6.038;2023-06-19T07:50:08;99552.66;;;22.85;66.27
59419;BME280;45224;50.904;6.038;2023-06-19T07:51:39;99547.38;;;23.01;66.63
59419;BME280;45224;50.904;6.038;2023-06-19T07:53:09;99550.97;;;23.15;66.36
59419;BME280;45224;50.904;6.038;2023-06-19T07:54:57;99550.72;;;23.36;65.30
59419;BME280;45224;50.904;6.038;2023-06-19T07:56:28;99556.22;;;23.47;64.52
59419;BME280;45224;50.904;6.038;2023-06-19T07:57:58;99563.56;;;23.42;63.97
59419;BME280;45224;50.904;6.038;2023-06-19T07:59:29;99554.19;;;23.37;63.61
59419;BME280;45224;50.904;6.038;2023-06-19T08:00:59;99552.94;;;23.28;63.58
59419;BME280;45224;50.904;6.038;2023-06-19T08:02:30;99557.63;;;23.39;63.11
59419;BME280;45224;50.904;6.038;2023-06-19T08:04:01;99551.28;;;23.41;63.37
59419;BME280;45224;50.904;6.038;2023-06-19T08:05:31;99554.44;;;23.48;63.58